»·PEaware :: N208GG KSBP-KSBP

N208GG :: KSBP-KSBP

FLIGHT INFORMATION

Flight Status: Arrived
Operator: Privately registered:
United States
More flights under this callsign
Pilot: Hunter M. (19355)
Aircraft: CESSNA 172 SKYHAWK
(C172)
More flights by this aircraft type
Origin: KSBP San Luis Co Regl
United States
Destination: KSBP San Luis Co Regl
United States
More flights between these airports :: More routes between these airports
Route: MQO
File this flight plan on PilotEdge
Remarks: practice approaches
Altitude:
(Current/Filed)
4,000ft
Speed:
(Current/Filed)
118kts
Departed: 08-Sep-19 03:51 PM
Arrived: 08-Sep-19 04:18 PM
Distance/Time
Traveled:
0nm/0:27
Distance/Time
To Go:
Arrived

Flight Plot

Page will automatically refresh every two minutes.


Map Options




Map Legend


Flown Route
Filed Route
Departure Airport
Arrival Airport
Navaid (VOR, NDB)
Fix

Horizontal Profiles

Position Reports

Time Latitude Longitude Heading Altitude Ground
Speed
08-Sep-19 15:22 35.238276 -120.638195 89 215ft 0kts
08-Sep-19 15:23 35.238276 -120.638195 89 215ft 0kts
08-Sep-19 15:24 35.238276 -120.638195 89 215ft 0kts
08-Sep-19 15:25 35.238276 -120.638195 89 215ft 0kts
08-Sep-19 15:26 35.238276 -120.638195 89 215ft 0kts
08-Sep-19 15:27 35.238276 -120.638195 89 215ft 0kts
08-Sep-19 15:28 35.238276 -120.638195 89 215ft 0kts
08-Sep-19 15:29 35.238276 -120.638195 89 215ft 0kts
08-Sep-19 15:30 35.238276 -120.638195 89 215ft 0kts
08-Sep-19 15:31 35.238276 -120.638195 89 215ft 0kts
08-Sep-19 15:32 35.238276 -120.638195 89 215ft 0kts
08-Sep-19 15:33 35.238276 -120.638195 89 215ft 0kts
08-Sep-19 15:34 35.238276 -120.638195 89 215ft 0kts
08-Sep-19 15:35 35.238276 -120.638195 89 215ft 0kts
08-Sep-19 15:36 35.238276 -120.638195 89 215ft 0kts
08-Sep-19 15:37 35.238276 -120.638195 89 215ft 0kts
08-Sep-19 15:38 35.238276 -120.638195 89 215ft 0kts
08-Sep-19 15:39 35.237476 -120.639082 181 215ft 1kts
08-Sep-19 15:40 35.235925 -120.636532 124 215ft 14kts
08-Sep-19 15:41 35.234557 -120.634031 122 215ft 3kts
08-Sep-19 15:42 35.234379 -120.633702 123 215ft 0kts
08-Sep-19 15:43 35.234379 -120.633701 123 215ft 0kts
08-Sep-19 15:44 35.233332 -120.632434 213 215ft 0kts
08-Sep-19 15:45 35.233331 -120.632434 213 215ft 0kts
08-Sep-19 15:46 35.233330 -120.632435 213 215ft 0kts
08-Sep-19 15:47 35.233329 -120.632436 213 215ft 0kts
08-Sep-19 15:48 35.233328 -120.632437 213 215ft 0kts
08-Sep-19 15:49 35.233237 -120.633842 304 215ft 27kts
08-Sep-19 15:50 35.245818 -120.656202 301 677ft 94kts
08-Sep-19 15:51 35.260802 -120.683358 301 1388ft 96kts
08-Sep-19 15:52 35.275776 -120.710019 301 2084ft 93kts
08-Sep-19 15:53 35.289645 -120.735588 301 2773ft 87kts
08-Sep-19 15:54 35.275189 -120.737521 141 3475ft 95kts
08-Sep-19 15:55 35.253508 -120.717140 141 4036ft 108kts
08-Sep-19 15:56 35.228299 -120.693152 141 4000ft 116kts
08-Sep-19 15:57 35.202788 -120.668805 141 4001ft 116kts
08-Sep-19 15:58 35.177405 -120.644505 142 4001ft 116kts
08-Sep-19 15:59 35.151472 -120.620648 142 3999ft 115kts
08-Sep-19 16:00 35.125816 -120.596975 142 4006ft 116kts
08-Sep-19 16:01 35.100086 -120.573124 142 3994ft 117kts
08-Sep-19 16:02 35.074320 -120.548396 139 3955ft 116kts
08-Sep-19 16:03 35.049358 -120.524379 137 4019ft 114kts
08-Sep-19 16:04 35.027136 -120.497607 107 4128ft 108kts
08-Sep-19 16:05 35.047149 -120.479918 12 4040ft 99kts
08-Sep-19 16:06 35.074742 -120.469846 22 3537ft 109kts
08-Sep-19 16:07 35.101644 -120.452971 23 3084ft 97kts
08-Sep-19 16:08 35.122773 -120.452782 327 3055ft 86kts
08-Sep-19 16:09 35.139550 -120.474722 308 2896ft 85kts
08-Sep-19 16:10 35.153476 -120.497329 307 2903ft 82kts
08-Sep-19 16:11 35.168083 -120.521261 304 2619ft 99kts
08-Sep-19 16:12 35.184055 -120.548082 302 2366ft 90kts
08-Sep-19 16:13 35.198061 -120.571004 302 1748ft 75kts
08-Sep-19 16:14 35.209455 -120.592150 301 1069ft 71kts
08-Sep-19 16:15 35.220477 -120.611103 300 700ft 67kts
08-Sep-19 16:16 35.231194 -120.630175 302 361ft 70kts
08-Sep-19 16:17 35.237894 -120.642015 304 215ft 11kts
08-Sep-19 16:18 35.237703 -120.639179 95 215ft 14kts

Navigation Log

Ident Type
Flight plan parsing failed, navigation log unavailable